Impacts TAF Board
For situational awareness. Not to be used for flight planning purposes.
IDs:

KIAD - Washington/Dulles In, VA, US

Issued at 2322 UTC 22 Sep 2018
Updated at 0240 UTC 23 Sep 2018
Potential Impact None Slight Moderate High
Time0152Z 23/03Z 23/04Z 23/05Z 23/06Z 23/07Z 23/08Z 23/09Z 23/10Z 23/11Z 23/12Z 23/13Z 23/14Z 23/15Z>>
Type OBS PRVL PRVL PRVL PRVL PRVL PRVL PRVL PRVL PRVL PRVL PRVL PRVL PRVL
VIS 10 >6 >6 >6 >6 >6 >6 >6 >6 >6 5 5 5 5
CIG 150 80 80 60 60 60 45 45 45 45 30 30 30 30
Cover BKN BKN BKN OVC OVC OVC OVC OVC OVC OVC OVC OVC OVC OVC
FltCat VFR VFR VFR VFR VFR VFR VFR VFR VFR VFR MVFR MVFR MVFR MVFR
WX -- -- -- -- -- -- -RA -RA -RA -RA -RA -RA -RA -RA
WDir 50 10 10 10 10 10 360 360 360 360 20 20 20 20
WSpd 5 8 8 4 4 4 5 5 5 5 4 4 4 4
WGst -- -- -- -- -- -- -- -- -- -- -- -- -- --
Raw TAF
KIAD 222322Z 2300/2406 01008KT P6SM BKN080
  FM230500 01004KT P6SM OVC060
  FM230800 36005KT P6SM -RA OVC045
  FM231200 02004KT 5SM -RA OVC030
  FM231800 03004KT 4SM -RA OVC015


Raw METAR
KIAD 230152Z 05005KT 10SM SCT090 BKN150 17/13 A3021 RMK AO2 SLP227 T01670128
KIAD 230052Z 03007KT 10SM FEW090 BKN150 17/12 A3020 RMK AO2 SLP225 T01720122
KIAD 222352Z 02007KT 10SM FEW090 BKN140 BKN200 18/13 A3019 RMK AO2 SLP221 T01830133 10244 20183 51015

METAR Board
Radar Display
Forecast Discussion
For situational awareness. Not to be used for flight planning purposes.